<?xml version="1.0" encoding="UTF-8" standalone="no" ?>
<gpx xmlns="http://www.topografix.com/GPX/1/1" xmlns:xsi="http://www.w3.org/2001/XMLSchema-instance" xsi:schemaLocation="http://www.topografix.com/GPX/1/1 http://www.topografix.com/GPX/1/1/gpx.xsd" version="1.1" creator="VisuGPX - https://www.visugpx.com">
  <metadata>
    <name>12176448-1er itineraire</name>
  </metadata>
  <trk>
    <name><![CDATA[12176448-1er itineraire]]></name>
    <trkseg>
      <trkpt lat="47.87396" lon="0.22487">
        <ele>56</ele>
        <time>2020-10-18T16:24:58Z</time>
      </trkpt>
      <trkpt lat="47.87392" lon="0.22555">
        <ele>56</ele>
        <time>2020-10-18T16:25:35Z</time>
      </trkpt>
      <trkpt lat="47.87409" lon="0.22553">
        <ele>56</ele>
        <time>2020-10-18T16:25:48Z</time>
      </trkpt>
      <trkpt lat="47.87432" lon="0.2256">
        <ele>57</ele>
        <time>2020-10-18T16:26:07Z</time>
      </trkpt>
      <trkpt lat="47.87482" lon="0.22552">
        <ele>59</ele>
        <time>2020-10-18T16:26:47Z</time>
      </trkpt>
      <trkpt lat="47.87503" lon="0.22537">
        <ele>60</ele>
        <time>2020-10-18T16:27:06Z</time>
      </trkpt>
      <trkpt lat="47.8756" lon="0.22527">
        <ele>62</ele>
        <time>2020-10-18T16:27:52Z</time>
      </trkpt>
      <trkpt lat="47.87566" lon="0.22523">
        <ele>62</ele>
        <time>2020-10-18T16:27:57Z</time>
      </trkpt>
      <trkpt lat="47.87572" lon="0.2255">
        <ele>62</ele>
        <time>2020-10-18T16:28:13Z</time>
      </trkpt>
      <trkpt lat="47.87575" lon="0.22558">
        <ele>62</ele>
        <time>2020-10-18T16:28:17Z</time>
      </trkpt>
      <trkpt lat="47.87588" lon="0.22573">
        <ele>63</ele>
        <time>2020-10-18T16:28:31Z</time>
      </trkpt>
      <trkpt lat="47.8759" lon="0.22579">
        <ele>63</ele>
        <time>2020-10-18T16:28:34Z</time>
      </trkpt>
      <trkpt lat="47.87593" lon="0.22623">
        <ele>62</ele>
        <time>2020-10-18T16:28:58Z</time>
      </trkpt>
      <trkpt lat="47.87575" lon="0.22761">
        <ele>63</ele>
        <time>2020-10-18T16:30:13Z</time>
      </trkpt>
      <trkpt lat="47.87526" lon="0.22749">
        <ele>62</ele>
        <time>2020-10-18T16:30:53Z</time>
      </trkpt>
      <trkpt lat="47.87508" lon="0.22751">
        <ele>61</ele>
        <time>2020-10-18T16:31:08Z</time>
      </trkpt>
      <trkpt lat="47.87485" lon="0.22759">
        <ele>61</ele>
        <time>2020-10-18T16:31:27Z</time>
      </trkpt>
      <trkpt lat="47.87353" lon="0.22835">
        <ele>60</ele>
        <time>2020-10-18T16:33:20Z</time>
      </trkpt>
      <trkpt lat="47.87271" lon="0.22873">
        <ele>61</ele>
        <time>2020-10-18T16:34:29Z</time>
      </trkpt>
      <trkpt lat="47.87207" lon="0.22895">
        <ele>61</ele>
        <time>2020-10-18T16:35:21Z</time>
      </trkpt>
      <trkpt lat="47.87035" lon="0.22947">
        <ele>58</ele>
        <time>2020-10-18T16:37:42Z</time>
      </trkpt>
      <trkpt lat="47.87017" lon="0.2295">
        <ele>58</ele>
        <time>2020-10-18T16:37:56Z</time>
      </trkpt>
      <trkpt lat="47.87003" lon="0.22946">
        <ele>58</ele>
        <time>2020-10-18T16:38:08Z</time>
      </trkpt>
      <trkpt lat="47.86976" lon="0.22927">
        <ele>58</ele>
        <time>2020-10-18T16:38:32Z</time>
      </trkpt>
      <trkpt lat="47.86962" lon="0.22922">
        <ele>58</ele>
        <time>2020-10-18T16:38:43Z</time>
      </trkpt>
      <trkpt lat="47.86943" lon="0.22918">
        <ele>59</ele>
        <time>2020-10-18T16:38:58Z</time>
      </trkpt>
      <trkpt lat="47.86902" lon="0.22916">
        <ele>59</ele>
        <time>2020-10-18T16:39:31Z</time>
      </trkpt>
      <trkpt lat="47.86823" lon="0.22899">
        <ele>58</ele>
        <time>2020-10-18T16:40:35Z</time>
      </trkpt>
      <trkpt lat="47.86668" lon="0.22907">
        <ele>61</ele>
        <time>2020-10-18T16:42:39Z</time>
      </trkpt>
      <trkpt lat="47.86636" lon="0.22913">
        <ele>61</ele>
        <time>2020-10-18T16:43:05Z</time>
      </trkpt>
      <trkpt lat="47.86605" lon="0.22923">
        <ele>60</ele>
        <time>2020-10-18T16:43:31Z</time>
      </trkpt>
      <trkpt lat="47.86565" lon="0.22945">
        <ele>60</ele>
        <time>2020-10-18T16:44:05Z</time>
      </trkpt>
      <trkpt lat="47.86541" lon="0.22809">
        <ele>60</ele>
        <time>2020-10-18T16:45:20Z</time>
      </trkpt>
      <trkpt lat="47.86532" lon="0.22775">
        <ele>59</ele>
        <time>2020-10-18T16:45:40Z</time>
      </trkpt>
      <trkpt lat="47.86526" lon="0.22764">
        <ele>59</ele>
        <time>2020-10-18T16:45:48Z</time>
      </trkpt>
      <trkpt lat="47.86495" lon="0.22743">
        <ele>59</ele>
        <time>2020-10-18T16:46:15Z</time>
      </trkpt>
      <trkpt lat="47.86484" lon="0.22723">
        <ele>58</ele>
        <time>2020-10-18T16:46:29Z</time>
      </trkpt>
      <trkpt lat="47.86481" lon="0.2271">
        <ele>58</ele>
        <time>2020-10-18T16:46:36Z</time>
      </trkpt>
      <trkpt lat="47.8648" lon="0.22624">
        <ele>57</ele>
        <time>2020-10-18T16:47:22Z</time>
      </trkpt>
      <trkpt lat="47.86485" lon="0.22578">
        <ele>57</ele>
        <time>2020-10-18T16:47:47Z</time>
      </trkpt>
      <trkpt lat="47.86494" lon="0.22532">
        <ele>57</ele>
        <time>2020-10-18T16:48:13Z</time>
      </trkpt>
      <trkpt lat="47.86501" lon="0.22487">
        <ele>58</ele>
        <time>2020-10-18T16:48:38Z</time>
      </trkpt>
      <trkpt lat="47.86508" lon="0.22461">
        <ele>57</ele>
        <time>2020-10-18T16:48:53Z</time>
      </trkpt>
      <trkpt lat="47.86518" lon="0.22445">
        <ele>57</ele>
        <time>2020-10-18T16:49:05Z</time>
      </trkpt>
      <trkpt lat="47.86548" lon="0.2243">
        <ele>57</ele>
        <time>2020-10-18T16:49:30Z</time>
      </trkpt>
      <trkpt lat="47.86559" lon="0.2242">
        <ele>57</ele>
        <time>2020-10-18T16:49:40Z</time>
      </trkpt>
      <trkpt lat="47.86561" lon="0.2241">
        <ele>57</ele>
        <time>2020-10-18T16:49:46Z</time>
      </trkpt>
      <trkpt lat="47.8656" lon="0.22403">
        <ele>56</ele>
        <time>2020-10-18T16:49:50Z</time>
      </trkpt>
      <trkpt lat="47.86556" lon="0.22389">
        <ele>56</ele>
        <time>2020-10-18T16:49:58Z</time>
      </trkpt>
      <trkpt lat="47.86539" lon="0.22344">
        <ele>56</ele>
        <time>2020-10-18T16:50:26Z</time>
      </trkpt>
      <trkpt lat="47.86551" lon="0.22303">
        <ele>55</ele>
        <time>2020-10-18T16:50:50Z</time>
      </trkpt>
      <trkpt lat="47.86595" lon="0.22167">
        <ele>55</ele>
        <time>2020-10-18T16:52:11Z</time>
      </trkpt>
      <trkpt lat="47.86629" lon="0.22087">
        <ele>54</ele>
        <time>2020-10-18T16:53:02Z</time>
      </trkpt>
      <trkpt lat="47.86669" lon="0.2201">
        <ele>54</ele>
        <time>2020-10-18T16:53:54Z</time>
      </trkpt>
      <trkpt lat="47.86738" lon="0.21833">
        <ele>52</ele>
        <time>2020-10-18T16:55:44Z</time>
      </trkpt>
      <trkpt lat="47.86755" lon="0.21795">
        <ele>52</ele>
        <time>2020-10-18T16:56:08Z</time>
      </trkpt>
      <trkpt lat="47.8678" lon="0.21808">
        <ele>52</ele>
        <time>2020-10-18T16:56:30Z</time>
      </trkpt>
      <trkpt lat="47.86798" lon="0.21809">
        <ele>52</ele>
        <time>2020-10-18T16:56:44Z</time>
      </trkpt>
      <trkpt lat="47.86867" lon="0.21803">
        <ele>52</ele>
        <time>2020-10-18T16:57:39Z</time>
      </trkpt>
      <trkpt lat="47.86896" lon="0.21812">
        <ele>51</ele>
        <time>2020-10-18T16:58:03Z</time>
      </trkpt>
      <trkpt lat="47.86952" lon="0.21844">
        <ele>52</ele>
        <time>2020-10-18T16:58:51Z</time>
      </trkpt>
      <trkpt lat="47.86974" lon="0.2185">
        <ele>52</ele>
        <time>2020-10-18T16:59:09Z</time>
      </trkpt>
      <trkpt lat="47.87057" lon="0.2184">
        <ele>53</ele>
        <time>2020-10-18T17:00:16Z</time>
      </trkpt>
      <trkpt lat="47.87078" lon="0.21834">
        <ele>53</ele>
        <time>2020-10-18T17:00:33Z</time>
      </trkpt>
      <trkpt lat="47.87088" lon="0.21828">
        <ele>53</ele>
        <time>2020-10-18T17:00:41Z</time>
      </trkpt>
      <trkpt lat="47.8713" lon="0.21811">
        <ele>53</ele>
        <time>2020-10-18T17:01:16Z</time>
      </trkpt>
      <trkpt lat="47.87145" lon="0.21813">
        <ele>53</ele>
        <time>2020-10-18T17:01:28Z</time>
      </trkpt>
      <trkpt lat="47.87153" lon="0.21821">
        <ele>53</ele>
        <time>2020-10-18T17:01:36Z</time>
      </trkpt>
      <trkpt lat="47.87162" lon="0.21835">
        <ele>53</ele>
        <time>2020-10-18T17:01:47Z</time>
      </trkpt>
      <trkpt lat="47.87187" lon="0.21903">
        <ele>53</ele>
        <time>2020-10-18T17:02:28Z</time>
      </trkpt>
      <trkpt lat="47.87177" lon="0.21906">
        <ele>53</ele>
        <time>2020-10-18T17:02:36Z</time>
      </trkpt>
      <trkpt lat="47.8714" lon="0.21932">
        <ele>53</ele>
        <time>2020-10-18T17:03:09Z</time>
      </trkpt>
      <trkpt lat="47.87116" lon="0.21953">
        <ele>53</ele>
        <time>2020-10-18T17:03:31Z</time>
      </trkpt>
      <trkpt lat="47.87108" lon="0.21973">
        <ele>53</ele>
        <time>2020-10-18T17:03:44Z</time>
      </trkpt>
      <trkpt lat="47.87106" lon="0.21996">
        <ele>54</ele>
        <time>2020-10-18T17:03:56Z</time>
      </trkpt>
      <trkpt lat="47.87108" lon="0.22026">
        <ele>54</ele>
        <time>2020-10-18T17:04:13Z</time>
      </trkpt>
      <trkpt lat="47.87127" lon="0.22178">
        <ele>54</ele>
        <time>2020-10-18T17:05:36Z</time>
      </trkpt>
      <trkpt lat="47.87145" lon="0.22303">
        <ele>56</ele>
        <time>2020-10-18T17:06:44Z</time>
      </trkpt>
      <trkpt lat="47.87152" lon="0.22346">
        <ele>56</ele>
        <time>2020-10-18T17:07:08Z</time>
      </trkpt>
      <trkpt lat="47.87145" lon="0.22347">
        <ele>56</ele>
        <time>2020-10-18T17:07:14Z</time>
      </trkpt>
      <trkpt lat="47.87152" lon="0.22346">
        <ele>56</ele>
        <time>2020-10-18T17:07:19Z</time>
      </trkpt>
      <trkpt lat="47.87172" lon="0.22467">
        <ele>57</ele>
        <time>2020-10-18T17:08:26Z</time>
      </trkpt>
      <trkpt lat="47.87181" lon="0.226">
        <ele>58</ele>
        <time>2020-10-18T17:09:38Z</time>
      </trkpt>
      <trkpt lat="47.87198" lon="0.22697">
        <ele>59</ele>
        <time>2020-10-18T17:10:32Z</time>
      </trkpt>
      <trkpt lat="47.87239" lon="0.22883">
        <ele>61</ele>
        <time>2020-10-18T17:12:17Z</time>
      </trkpt>
      <trkpt lat="47.87271" lon="0.22873">
        <ele>61</ele>
        <time>2020-10-18T17:12:43Z</time>
      </trkpt>
      <trkpt lat="47.8732" lon="0.22851">
        <ele>61</ele>
        <time>2020-10-18T17:13:24Z</time>
      </trkpt>
      <trkpt lat="47.87353" lon="0.22835">
        <ele>60</ele>
        <time>2020-10-18T17:13:52Z</time>
      </trkpt>
      <trkpt lat="47.87485" lon="0.22759">
        <ele>61</ele>
        <time>2020-10-18T17:15:45Z</time>
      </trkpt>
      <trkpt lat="47.87508" lon="0.22751">
        <ele>61</ele>
        <time>2020-10-18T17:16:04Z</time>
      </trkpt>
      <trkpt lat="47.87526" lon="0.22749">
        <ele>62</ele>
        <time>2020-10-18T17:16:19Z</time>
      </trkpt>
      <trkpt lat="47.87575" lon="0.22761">
        <ele>63</ele>
        <time>2020-10-18T17:16:58Z</time>
      </trkpt>
      <trkpt lat="47.87593" lon="0.22623">
        <ele>62</ele>
        <time>2020-10-18T17:18:14Z</time>
      </trkpt>
      <trkpt lat="47.8759" lon="0.22579">
        <ele>63</ele>
        <time>2020-10-18T17:18:38Z</time>
      </trkpt>
      <trkpt lat="47.87588" lon="0.22573">
        <ele>63</ele>
        <time>2020-10-18T17:18:41Z</time>
      </trkpt>
      <trkpt lat="47.87575" lon="0.22558">
        <ele>62</ele>
        <time>2020-10-18T17:18:54Z</time>
      </trkpt>
      <trkpt lat="47.87572" lon="0.2255">
        <ele>62</ele>
        <time>2020-10-18T17:18:59Z</time>
      </trkpt>
      <trkpt lat="47.87566" lon="0.22523">
        <ele>62</ele>
        <time>2020-10-18T17:19:15Z</time>
      </trkpt>
      <trkpt lat="47.8756" lon="0.22527">
        <ele>62</ele>
        <time>2020-10-18T17:19:20Z</time>
      </trkpt>
      <trkpt lat="47.8752" lon="0.22534">
        <ele>60</ele>
        <time>2020-10-18T17:19:52Z</time>
      </trkpt>
      <trkpt lat="47.87507" lon="0.22473">
        <ele>59</ele>
        <time>2020-10-18T17:20:26Z</time>
      </trkpt>
      <trkpt lat="47.87433" lon="0.22435">
        <ele>56</ele>
        <time>2020-10-18T17:21:29Z</time>
      </trkpt>
      <trkpt lat="47.87406" lon="0.22436">
        <ele>55</ele>
        <time>2020-10-18T17:21:51Z</time>
      </trkpt>
      <trkpt lat="47.87399" lon="0.22444">
        <ele>55</ele>
        <time>2020-10-18T17:21:58Z</time>
      </trkpt>
      <trkpt lat="47.87396" lon="0.22438">
        <ele>55</ele>
        <time>2020-10-18T17:22:02Z</time>
      </trkpt>
      <trkpt lat="47.87384" lon="0.2247">
        <ele>56</ele>
        <time>2020-10-18T17:22:22Z</time>
      </trkpt>
    </trkseg>
  </trk>
</gpx>